sensor_id;sensor_type;location;lat;lon;timestamp;temperature;humidity
66271;DHT22;53063;39.614;8.814;2023-11-18T00:01:21;14.10;92.70
66271;DHT22;53063;39.614;8.814;2023-11-18T00:03:47;14.10;92.20
66271;DHT22;53063;39.614;8.814;2023-11-18T00:06:16;14.10;91.80
66271;DHT22;53063;39.614;8.814;2023-11-18T00:08:42;14.20;91.30
66271;DHT22;53063;39.614;8.814;2023-11-18T00:11:09;14.20;90.40
66271;DHT22;53063;39.614;8.814;2023-11-18T00:13:37;14.00;90.00
66271;DHT22;53063;39.614;8.814;2023-11-18T00:16:09;13.80;90.40
66271;DHT22;53063;39.614;8.814;2023-11-18T00:18:39;13.80;91.00
66271;DHT22;53063;39.614;8.814;2023-11-18T00:21:06;13.70;91.10
66271;DHT22;53063;39.614;8.814;2023-11-18T00:23:32;13.70;91.10
66271;DHT22;53063;39.614;8.814;2023-11-18T00:25:58;13.70;91.20
66271;DHT22;53063;39.614;8.814;2023-11-18T00:28:23;13.80;90.90
66271;DHT22;53063;39.614;8.814;2023-11-18T00:30:49;13.70;90.80
66271;DHT22;53063;39.614;8.814;2023-11-18T00:33:15;13.70;91.10
66271;DHT22;53063;39.614;8.814;2023-11-18T00:35:41;13.60;91.20
66271;DHT22;53063;39.614;8.814;2023-11-18T00:38:08;13.60;91.60
66271;DHT22;53063;39.614;8.814;2023-11-18T00:40:34;13.50;91.60
66271;DHT22;53063;39.614;8.814;2023-11-18T00:43:00;13.50;91.90
66271;DHT22;53063;39.614;8.814;2023-11-18T00:45:28;13.40;92.40
66271;DHT22;53063;39.614;8.814;2023-11-18T00:47:54;13.50;92.50
66271;DHT22;53063;39.614;8.814;2023-11-18T00:50:20;13.60;92.40
66271;DHT22;53063;39.614;8.814;2023-11-18T00:52:46;13.60;92.00
66271;DHT22;53063;39.614;8.814;2023-11-18T00:55:15;13.60;92.10
66271;DHT22;53063;39.614;8.814;2023-11-18T00:57:44;13.70;92.10
66271;DHT22;53063;39.614;8.814;2023-11-18T01:00:14;13.70;92.00
66271;DHT22;53063;39.614;8.814;2023-11-18T01:02:42;13.80;92.30
66271;DHT22;53063;39.614;8.814;2023-11-18T01:05:09;13.80;92.30
66271;DHT22;53063;39.614;8.814;2023-11-18T01:07:40;13.70;93.00
66271;DHT22;53063;39.614;8.814;2023-11-18T01:10:06;13.60;93.80
66271;DHT22;53063;39.614;8.814;2023-11-18T01:12:33;13.50;94.50
66271;DHT22;53063;39.614;8.814;2023-11-18T01:14:59;13.50;95.10
66271;DHT22;53063;39.614;8.814;2023-11-18T01:17:25;13.60;95.40
66271;DHT22;53063;39.614;8.814;2023-11-18T01:19:51;13.60;94.90
66271;DHT22;53063;39.614;8.814;2023-11-18T01:22:17;13.60;94.30
66271;DHT22;53063;39.614;8.814;2023-11-18T01:24:44;13.60;94.30
66271;DHT22;53063;39.614;8.814;2023-11-18T01:27:12;13.60;94.10
66271;DHT22;53063;39.614;8.814;2023-11-18T01:29:38;13.60;94.10
66271;DHT22;53063;39.614;8.814;2023-11-18T01:32:07;13.50;94.30
66271;DHT22;53063;39.614;8.814;2023-11-18T01:34:36;13.50;94.60
66271;DHT22;53063;39.614;8.814;2023-11-18T01:37:07;13.60;95.10
66271;DHT22;53063;39.614;8.814;2023-11-18T01:39:34;13.60;94.80
66271;DHT22;53063;39.614;8.814;2023-11-18T01:42:00;13.60;94.80
66271;DHT22;53063;39.614;8.814;2023-11-18T01:44:27;13.70;95.10
66271;DHT22;53063;39.614;8.814;2023-11-18T01:47:00;13.70;94.90
66271;DHT22;53063;39.614;8.814;2023-11-18T01:49:28;13.70;94.80
66271;DHT22;53063;39.614;8.814;2023-11-18T01:51:55;13.80;94.50
66271;DHT22;53063;39.614;8.814;2023-11-18T01:54:22;13.70;94.60
66271;DHT22;53063;39.614;8.814;2023-11-18T01:56:51;13.70;94.70
66271;DHT22;53063;39.614;8.814;2023-11-18T01:59:20;13.80;94.80
66271;DHT22;53063;39.614;8.814;2023-11-18T02:01:49;13.70;95.20
66271;DHT22;53063;39.614;8.814;2023-11-18T02:04:16;13.70;95.80
66271;DHT22;53063;39.614;8.814;2023-11-18T02:06:45;13.70;96.00
66271;DHT22;53063;39.614;8.814;2023-11-18T02:09:12;13.70;96.00
66271;DHT22;53063;39.614;8.814;2023-11-18T02:11:55;13.60;96.00
66271;DHT22;53063;39.614;8.814;2023-11-18T02:14:25;13.60;96.50
66271;DHT22;53063;39.614;8.814;2023-11-18T02:16:53;13.50;97.10
66271;DHT22;53063;39.614;8.814;2023-11-18T02:19:23;13.40;97.30
66271;DHT22;53063;39.614;8.814;2023-11-18T02:21:52;13.40;97.80
66271;DHT22;53063;39.614;8.814;2023-11-18T02:26:54;13.40;98.60
66271;DHT22;53063;39.614;8.814;2023-11-18T02:29:22;13.30;98.60
66271;DHT22;53063;39.614;8.814;2023-11-18T02:31:52;13.20;98.90
66271;DHT22;53063;39.614;8.814;2023-11-18T02:34:23;13.10;99.30
66271;DHT22;53063;39.614;8.814;2023-11-18T02:36:53;13.20;99.90
66271;DHT22;53063;39.614;8.814;2023-11-18T02:39:42;13.10;99.80
66271;DHT22;53063;39.614;8.814;2023-11-18T02:42:10;13.10;99.90
66271;DHT22;53063;39.614;8.814;2023-11-18T02:44:38;13.10;99.90
66271;DHT22;53063;39.614;8.814;2023-11-18T02:47:04;13.00;99.90
66271;DHT22;53063;39.614;8.814;2023-11-18T02:49:31;13.00;99.90
66271;DHT22;53063;39.614;8.814;2023-11-18T02:51:57;13.00;99.90
66271;DHT22;53063;39.614;8.814;2023-11-18T02:54:23;12.90;99.90
66271;DHT22;53063;39.614;8.814;2023-11-18T02:56:49;12.90;99.90
66271;DHT22;53063;39.614;8.814;2023-11-18T02:59:16;13.00;99.90
66271;DHT22;53063;39.614;8.814;2023-11-18T03:01:42;13.10;99.90
66271;DHT22;53063;39.614;8.814;2023-11-18T03:04:08;13.10;99.90
66271;DHT22;53063;39.614;8.814;2023-11-18T03:06:34;13.10;99.90
66271;DHT22;53063;39.614;8.814;2023-11-18T03:09:01;13.20;99.90
66271;DHT22;53063;39.614;8.814;2023-11-18T03:11:28;13.20;99.90
66271;DHT22;53063;39.614;8.814;2023-11-18T03:13:57;13.40;99.90
66271;DHT22;53063;39.614;8.814;2023-11-18T03:16:24;13.40;99.90
66271;DHT22;53063;39.614;8.814;2023-11-18T03:18:50;13.40;99.90
66271;DHT22;53063;39.614;8.814;2023-11-18T03:21:17;13.30;99.90
66271;DHT22;53063;39.614;8.814;2023-11-18T03:23:45;13.30;99.90
66271;DHT22;53063;39.614;8.814;2023-11-18T03:26:11;13.30;99.90
66271;DHT22;53063;39.614;8.814;2023-11-18T03:28:37;13.40;99.90
66271;DHT22;53063;39.614;8.814;2023-11-18T03:31:04;13.50;99.80
66271;DHT22;53063;39.614;8.814;2023-11-18T03:33:30;13.40;99.30
66271;DHT22;53063;39.614;8.814;2023-11-18T03:35:56;13.40;99.70
66271;DHT22;53063;39.614;8.814;2023-11-18T03:38:22;13.40;99.90
66271;DHT22;53063;39.614;8.814;2023-11-18T03:40:49;13.30;99.90
66271;DHT22;53063;39.614;8.814;2023-11-18T03:43:16;13.30;99.90
66271;DHT22;53063;39.614;8.814;2023-11-18T03:45:42;13.20;99.90
66271;DHT22;53063;39.614;8.814;2023-11-18T03:48:08;13.30;99.90
66271;DHT22;53063;39.614;8.814;2023-11-18T03:50:34;13.30;99.90
66271;DHT22;53063;39.614;8.814;2023-11-18T03:53:00;13.30;99.90
66271;DHT22;53063;39.614;8.814;2023-11-18T03:55:29;13.20;99.90
66271;DHT22;53063;39.614;8.814;2023-11-18T03:57:56;13.20;99.90
66271;DHT22;53063;39.614;8.814;2023-11-18T04:00:24;13.30;99.90
66271;DHT22;53063;39.614;8.814;2023-11-18T04:02:58;13.30;99.90
66271;DHT22;53063;39.614;8.814;2023-11-18T04:05:24;13.40;99.90
66271;DHT22;53063;39.614;8.814;2023-11-18T04:07:50;13.40;99.70
66271;DHT22;53063;39.614;8.814;2023-11-18T04:10:16;13.20;99.70
66271;DHT22;53063;39.614;8.814;2023-11-18T04:12:45;13.10;99.90
66271;DHT22;53063;39.614;8.814;2023-11-18T04:15:12;13.00;99.90
66271;DHT22;53063;39.614;8.814;2023-11-18T04:17:38;12.90;99.90
66271;DHT22;53063;39.614;8.814;2023-11-18T04:20:05;12.70;99.90
66271;DHT22;53063;39.614;8.814;2023-11-18T04:22:43;12.70;99.90
66271;DHT22;53063;39.614;8.814;2023-11-18T04:25:10;12.80;99.90
66271;DHT22;53063;39.614;8.814;2023-11-18T04:27:37;12.80;99.90
66271;DHT22;53063;39.614;8.814;2023-11-18T04:30:03;12.90;99.90
66271;DHT22;53063;39.614;8.814;2023-11-18T04:32:30;13.10;99.90
66271;DHT22;53063;39.614;8.814;2023-11-18T04:34:59;13.30;99.90
66271;DHT22;53063;39.614;8.814;2023-11-18T04:37:26;13.30;98.80
66271;DHT22;53063;39.614;8.814;2023-11-18T04:39:52;13.20;98.40
66271;DHT22;53063;39.614;8.814;2023-11-18T04:42:20;13.20;98.60
66271;DHT22;53063;39.614;8.814;2023-11-18T04:44:46;13.30;98.60
66271;DHT22;53063;39.614;8.814;2023-11-18T04:47:12;13.10;98.10
66271;DHT22;53063;39.614;8.814;2023-11-18T04:49:38;13.00;98.30
66271;DHT22;53063;39.614;8.814;2023-11-18T04:52:04;12.90;98.70
66271;DHT22;53063;39.614;8.814;2023-11-18T04:54:33;12.80;99.30
66271;DHT22;53063;39.614;8.814;2023-11-18T04:56:59;12.70;99.90
66271;DHT22;53063;39.614;8.814;2023-11-18T04:59:25;12.50;99.90
66271;DHT22;53063;39.614;8.814;2023-11-18T05:01:51;12.40;99.90
66271;DHT22;53063;39.614;8.814;2023-11-18T05:04:19;12.40;99.90
66271;DHT22;53063;39.614;8.814;2023-11-18T05:06:45;12.30;99.90
66271;DHT22;53063;39.614;8.814;2023-11-18T05:09:10;12.30;99.90
66271;DHT22;53063;39.614;8.814;2023-11-18T05:11:36;12.20;99.90
66271;DHT22;53063;39.614;8.814;2023-11-18T05:14:02;12.30;99.90
66271;DHT22;53063;39.614;8.814;2023-11-18T05:16:30;12.20;99.90
66271;DHT22;53063;39.614;8.814;2023-11-18T05:18:55;12.20;99.90
66271;DHT22;53063;39.614;8.814;2023-11-18T05:21:21;12.20;99.90
66271;DHT22;53063;39.614;8.814;2023-11-18T05:23:47;12.20;99.90
66271;DHT22;53063;39.614;8.814;2023-11-18T05:26:14;12.20;99.90
66271;DHT22;53063;39.614;8.814;2023-11-18T05:28:40;12.20;99.90
66271;DHT22;53063;39.614;8.814;2023-11-18T05:31:08;12.20;99.60
66271;DHT22;53063;39.614;8.814;2023-11-18T05:33:34;12.20;99.20
66271;DHT22;53063;39.614;8.814;2023-11-18T05:36:00;12.30;98.50
66271;DHT22;53063;39.614;8.814;2023-11-18T05:38:26;12.30;98.30
66271;DHT22;53063;39.614;8.814;2023-11-18T05:40:57;12.30;98.30
66271;DHT22;53063;39.614;8.814;2023-11-18T05:43:27;12.40;96.90
66271;DHT22;53063;39.614;8.814;2023-11-18T05:45:57;12.50;95.50
66271;DHT22;53063;39.614;8.814;2023-11-18T05:48:43;12.50;94.60
66271;DHT22;53063;39.614;8.814;2023-11-18T05:51:11;12.60;93.30
66271;DHT22;53063;39.614;8.814;2023-11-18T05:53:43;12.70;91.50
66271;DHT22;53063;39.614;8.814;2023-11-18T05:56:13;12.60;91.40
66271;DHT22;53063;39.614;8.814;2023-11-18T05:58:39;12.60;91.20
66271;DHT22;53063;39.614;8.814;2023-11-18T06:01:05;12.60;90.70
66271;DHT22;53063;39.614;8.814;2023-11-18T06:03:34;12.60;90.50
66271;DHT22;53063;39.614;8.814;2023-11-18T06:06:14;12.50;90.90
66271;DHT22;53063;39.614;8.814;2023-11-18T06:08:42;12.60;90.90
66271;DHT22;53063;39.614;8.814;2023-11-18T06:11:10;12.60;90.60
66271;DHT22;53063;39.614;8.814;2023-11-18T06:13:42;12.60;90.30
66271;DHT22;53063;39.614;8.814;2023-11-18T06:16:15;12.60;90.20
66271;DHT22;53063;39.614;8.814;2023-11-18T06:18:44;12.60;89.70
66271;DHT22;53063;39.614;8.814;2023-11-18T06:21:14;12.70;89.20
66271;DHT22;53063;39.614;8.814;2023-11-18T06:23:44;12.80;88.40
66271;DHT22;53063;39.614;8.814;2023-11-18T06:26:11;12.80;88.20
66271;DHT22;53063;39.614;8.814;2023-11-18T06:28:39;12.80;88.00
66271;DHT22;53063;39.614;8.814;2023-11-18T06:31:05;12.90;87.40
66271;DHT22;53063;39.614;8.814;2023-11-18T06:33:38;12.90;87.70
66271;DHT22;53063;39.614;8.814;2023-11-18T06:36:09;13.00;88.00
66271;DHT22;53063;39.614;8.814;2023-11-18T06:38:37;13.10;87.70
66271;DHT22;53063;39.614;8.814;2023-11-18T06:41:03;13.20;86.90
66271;DHT22;53063;39.614;8.814;2023-11-18T06:43:31;13.30;86.60
66271;DHT22;53063;39.614;8.814;2023-11-18T06:46:11;13.30;86.00
66271;DHT22;53063;39.614;8.814;2023-11-18T06:48:39;13.30;87.10
66271;DHT22;53063;39.614;8.814;2023-11-18T06:51:06;13.40;87.00
66271;DHT22;53063;39.614;8.814;2023-11-18T06:53:34;13.40;86.50
66271;DHT22;53063;39.614;8.814;2023-11-18T06:56:00;13.50;86.50
66271;DHT22;53063;39.614;8.814;2023-11-18T06:58:26;13.50;87.00
66271;DHT22;53063;39.614;8.814;2023-11-18T07:00:53;13.80;86.50
66271;DHT22;53063;39.614;8.814;2023-11-18T07:03:19;14.10;84.80
66271;DHT22;53063;39.614;8.814;2023-11-18T07:05:45;14.30;83.60
66271;DHT22;53063;39.614;8.814;2023-11-18T07:08:11;14.30;82.20
66271;DHT22;53063;39.614;8.814;2023-11-18T07:10:39;14.50;81.40
66271;DHT22;53063;39.614;8.814;2023-11-18T07:13:05;14.70;79.90
66271;DHT22;53063;39.614;8.814;2023-11-18T07:15:34;14.90;79.60
66271;DHT22;53063;39.614;8.814;2023-11-18T07:18:02;15.20;79.00
66271;DHT22;53063;39.614;8.814;2023-11-18T07:20:27;15.70;76.80
66271;DHT22;53063;39.614;8.814;2023-11-18T07:22:53;17.00;76.50
66271;DHT22;53063;39.614;8.814;2023-11-18T07:25:20;18.30;70.20
66271;DHT22;53063;39.614;8.814;2023-11-18T07:27:46;19.40;63.80
66271;DHT22;53063;39.614;8.814;2023-11-18T07:30:12;20.10;58.60
66271;DHT22;53063;39.614;8.814;2023-11-18T07:32:41;19.90;58.00
66271;DHT22;53063;39.614;8.814;2023-11-18T07:35:07;20.20;55.50
66271;DHT22;53063;39.614;8.814;2023-11-18T07:37:35;19.90;56.20
66271;DHT22;53063;39.614;8.814;2023-11-18T07:40:03;19.30;58.60
66271;DHT22;53063;39.614;8.814;2023-11-18T07:42:31;20.10;57.00
66271;DHT22;53063;39.614;8.814;2023-11-18T07:45:01;22.10;51.70
66271;DHT22;53063;39.614;8.814;2023-11-18T07:47:33;21.60;50.90
66271;DHT22;53063;39.614;8.814;2023-11-18T07:49:59;21.70;51.60
66271;DHT22;53063;39.614;8.814;2023-11-18T07:52:26;23.30;48.00
66271;DHT22;53063;39.614;8.814;2023-11-18T07:54:53;23.40;48.40
66271;DHT22;53063;39.614;8.814;2023-11-18T07:57:19;25.00;44.80
66271;DHT22;53063;39.614;8.814;2023-11-18T07:59:45;25.90;41.40
66271;DHT22;53063;39.614;8.814;2023-11-18T08:02:12;26.40;40.90
66271;DHT22;53063;39.614;8.814;2023-11-18T08:04:40;27.00;39.50
66271;DHT22;53063;39.614;8.814;2023-11-18T08:07:07;27.60;37.60
66271;DHT22;53063;39.614;8.814;2023-11-18T08:09:36;28.10;36.90
66271;DHT22;53063;39.614;8.814;2023-11-18T08:12:05;28.00;36.80
66271;DHT22;53063;39.614;8.814;2023-11-18T08:14:35;27.70;37.80
66271;DHT22;53063;39.614;8.814;2023-11-18T08:17:01;27.50;39.20
66271;DHT22;53063;39.614;8.814;2023-11-18T08:19:26;27.20;40.90
66271;DHT22;53063;39.614;8.814;2023-11-18T08:21:52;25.00;44.10
66271;DHT22;53063;39.614;8.814;2023-11-18T08:24:18;23.70;46.70
66271;DHT22;53063;39.614;8.814;2023-11-18T08:26:46;25.60;45.80
66271;DHT22;53063;39.614;8.814;2023-11-18T08:29:12;27.00;42.40
66271;DHT22;53063;39.614;8.814;2023-11-18T08:31:38;25.90;42.80
66271;DHT22;53063;39.614;8.814;2023-11-18T08:34:05;24.00;45.50
66271;DHT22;53063;39.614;8.814;2023-11-18T08:36:31;27.30;42.70
66271;DHT22;53063;39.614;8.814;2023-11-18T08:38:59;28.70;38.50
66271;DHT22;53063;39.614;8.814;2023-11-18T08:41:25;28.50;37.00
66271;DHT22;53063;39.614;8.814;2023-11-18T08:43:51;27.80;38.30
66271;DHT22;53063;39.614;8.814;2023-11-18T08:46:17;26.60;39.50
66271;DHT22;53063;39.614;8.814;2023-11-18T08:48:43;26.50;40.80
66271;DHT22;53063;39.614;8.814;2023-11-18T08:51:10;28.60;37.80
66271;DHT22;53063;39.614;8.814;2023-11-18T08:53:38;27.90;38.90
66271;DHT22;53063;39.614;8.814;2023-11-18T08:56:10;28.90;36.50
66271;DHT22;53063;39.614;8.814;2023-11-18T08:58:43;29.00;35.70
66271;DHT22;53063;39.614;8.814;2023-11-18T09:01:10;29.80;36.20
66271;DHT22;53063;39.614;8.814;2023-11-18T09:03:42;30.50;34.70
66271;DHT22;53063;39.614;8.814;2023-11-18T09:06:17;29.80;33.20
66271;DHT22;53063;39.614;8.814;2023-11-18T09:08:47;26.40;38.10
66271;DHT22;53063;39.614;8.814;2023-11-18T09:11:18;25.50;41.40
66271;DHT22;53063;39.614;8.814;2023-11-18T09:13:47;26.30;38.60
66271;DHT22;53063;39.614;8.814;2023-11-18T09:16:17;27.90;38.90
66271;DHT22;53063;39.614;8.814;2023-11-18T09:18:43;31.00;33.90
66271;DHT22;53063;39.614;8.814;2023-11-18T09:21:12;30.70;34.60
66271;DHT22;53063;39.614;8.814;2023-11-18T09:23:42;32.10;31.20
66271;DHT22;53063;39.614;8.814;2023-11-18T09:26:08;31.40;32.50
66271;DHT22;53063;39.614;8.814;2023-11-18T09:28:36;31.80;31.70
66271;DHT22;53063;39.614;8.814;2023-11-18T09:31:05;31.20;32.70
66271;DHT22;53063;39.614;8.814;2023-11-18T09:33:33;31.90;31.40
66271;DHT22;53063;39.614;8.814;2023-11-18T09:38:31;27.10;37.30
66271;DHT22;53063;39.614;8.814;2023-11-18T09:40:59;29.20;36.70
66271;DHT22;53063;39.614;8.814;2023-11-18T09:43:32;29.50;34.00
66271;DHT22;53063;39.614;8.814;2023-11-18T09:46:06;29.00;35.20
66271;DHT22;53063;39.614;8.814;2023-11-18T09:48:46;30.00;35.80
66271;DHT22;53063;39.614;8.814;2023-11-18T09:51:22;29.70;35.30
66271;DHT22;53063;39.614;8.814;2023-11-18T09:53:53;28.60;37.60
66271;DHT22;53063;39.614;8.814;2023-11-18T09:56:35;31.40;33.30
66271;DHT22;53063;39.614;8.814;2023-11-18T09:59:25;27.90;36.70
66271;DHT22;53063;39.614;8.814;2023-11-18T10:01:57;28.90;35.80
66271;DHT22;53063;39.614;8.814;2023-11-18T10:04:24;31.10;35.00
66271;DHT22;53063;39.614;8.814;2023-11-18T10:06:56;31.70;33.70
66271;DHT22;53063;39.614;8.814;2023-11-18T10:09:26;31.30;33.70
66271;DHT22;53063;39.614;8.814;2023-11-18T10:12:07;29.80;34.50
66271;DHT22;53063;39.614;8.814;2023-11-18T10:14:34;28.70;36.30
66271;DHT22;53063;39.614;8.814;2023-11-18T10:17:05;31.50;34.60
66271;DHT22;53063;39.614;8.814;2023-11-18T10:19:55;33.30;31.80
66271;DHT22;53063;39.614;8.814;2023-11-18T10:22:31;33.50;31.40
66271;DHT22;53063;39.614;8.814;2023-11-18T10:24:58;33.50;31.30
66271;DHT22;53063;39.614;8.814;2023-11-18T10:27:27;30.90;33.10
66271;DHT22;53063;39.614;8.814;2023-11-18T10:29:57;30.60;34.60
66271;DHT22;53063;39.614;8.814;2023-11-18T10:32:24;32.50;33.00
66271;DHT22;53063;39.614;8.814;2023-11-18T10:34:56;32.10;32.50
66271;DHT22;53063;39.614;8.814;2023-11-18T10:37:24;32.90;32.70
66271;DHT22;53063;39.614;8.814;2023-11-18T10:39:50;33.60;31.90
66271;DHT22;53063;39.614;8.814;2023-11-18T10:42:19;33.10;32.50
66271;DHT22;53063;39.614;8.814;2023-11-18T10:44:55;32.70;32.70
66271;DHT22;53063;39.614;8.814;2023-11-18T10:47:27;32.70;33.00
66271;DHT22;53063;39.614;8.814;2023-11-18T10:49:54;31.20;34.50
66271;DHT22;53063;39.614;8.814;2023-11-18T10:52:22;28.20;37.60
66271;DHT22;53063;39.614;8.814;2023-11-18T10:54:53;24.70;42.90
66271;DHT22;53063;39.614;8.814;2023-11-18T10:57:24;24.10;45.60
66271;DHT22;53063;39.614;8.814;2023-11-18T11:00:04;24.50;46.10
66271;DHT22;53063;39.614;8.814;2023-11-18T11:02:41;24.60;46.80
66271;DHT22;53063;39.614;8.814;2023-11-18T11:05:08;24.90;46.20
66271;DHT22;53063;39.614;8.814;2023-11-18T11:07:42;24.20;47.60
66271;DHT22;53063;39.614;8.814;2023-11-18T11:10:09;24.30;47.10
66271;DHT22;53063;39.614;8.814;2023-11-18T11:12:51;24.00;47.60
66271;DHT22;53063;39.614;8.814;2023-11-18T11:15:30;24.10;48.10
66271;DHT22;53063;39.614;8.814;2023-11-18T11:18:08;23.40;48.90
66271;DHT22;53063;39.614;8.814;2023-11-18T11:21:35;23.80;49.10
66271;DHT22;53063;39.614;8.814;2023-11-18T11:24:23;23.90;48.50
66271;DHT22;53063;39.614;8.814;2023-11-18T11:27:15;23.80;48.70
66271;DHT22;53063;39.614;8.814;2023-11-18T11:29:59;23.70;48.70
66271;DHT22;53063;39.614;8.814;2023-11-18T11:32:39;23.70;48.70
66271;DHT22;53063;39.614;8.814;2023-11-18T11:35:18;23.00;49.40
66271;DHT22;53063;39.614;8.814;2023-11-18T11:37:47;22.90;52.10
66271;DHT22;53063;39.614;8.814;2023-11-18T11:40:14;23.30;50.80
66271;DHT22;53063;39.614;8.814;2023-11-18T11:42:49;23.10;50.80
66271;DHT22;53063;39.614;8.814;2023-11-18T11:45:24;23.30;50.50
66271;DHT22;53063;39.614;8.814;2023-11-18T11:47:55;23.40;50.40
66271;DHT22;53063;39.614;8.814;2023-11-18T11:51:03;23.20;48.70
66271;DHT22;53063;39.614;8.814;2023-11-18T11:53:45;23.30;50.00
66271;DHT22;53063;39.614;8.814;2023-11-18T11:56:13;23.40;50.50
66271;DHT22;53063;39.614;8.814;2023-11-18T11:58:41;23.40;48.30
66271;DHT22;53063;39.614;8.814;2023-11-18T12:01:24;23.40;48.40
66271;DHT22;53063;39.614;8.814;2023-11-18T12:03:56;23.30;49.50
66271;DHT22;53063;39.614;8.814;2023-11-18T12:06:26;23.30;50.30
66271;DHT22;53063;39.614;8.814;2023-11-18T12:08:53;23.10;50.00
66271;DHT22;53063;39.614;8.814;2023-11-18T12:11:20;23.20;50.40
66271;DHT22;53063;39.614;8.814;2023-11-18T12:14:20;23.30;50.20
66271;DHT22;53063;39.614;8.814;2023-11-18T12:17:01;23.30;49.30
66271;DHT22;53063;39.614;8.814;2023-11-18T12:19:35;23.40;49.80
66271;DHT22;53063;39.614;8.814;2023-11-18T12:22:19;23.30;48.70
66271;DHT22;53063;39.614;8.814;2023-11-18T12:33:05;23.00;49.70
66271;DHT22;53063;39.614;8.814;2023-11-18T12:36:01;22.70;50.60
66271;DHT22;53063;39.614;8.814;2023-11-18T12:39:09;22.40;53.20
66271;DHT22;53063;39.614;8.814;2023-11-18T12:41:42;22.30;52.00
66271;DHT22;53063;39.614;8.814;2023-11-18T12:44:29;21.70;53.60
66271;DHT22;53063;39.614;8.814;2023-11-18T12:47:04;22.30;51.30
66271;DHT22;53063;39.614;8.814;2023-11-18T12:49:41;22.60;50.20
66271;DHT22;53063;39.614;8.814;2023-11-18T12:52:08;22.80;51.10
66271;DHT22;53063;39.614;8.814;2023-11-18T12:54:35;22.60;50.20
66271;DHT22;53063;39.614;8.814;2023-11-18T12:57:06;22.60;51.30
66271;DHT22;53063;39.614;8.814;2023-11-18T12:59:36;22.70;51.00
66271;DHT22;53063;39.614;8.814;2023-11-18T13:02:12;22.70;50.90
66271;DHT22;53063;39.614;8.814;2023-11-18T13:04:45;22.60;51.00
66271;DHT22;53063;39.614;8.814;2023-11-18T13:07:14;22.60;50.70
66271;DHT22;53063;39.614;8.814;2023-11-18T13:09:40;22.80;51.20
66271;DHT22;53063;39.614;8.814;2023-11-18T13:12:08;22.90;51.40
66271;DHT22;53063;39.614;8.814;2023-11-18T13:14:36;23.00;51.60
66271;DHT22;53063;39.614;8.814;2023-11-18T13:17:08;23.00;50.70
66271;DHT22;53063;39.614;8.814;2023-11-18T13:19:34;23.00;51.10
66271;DHT22;53063;39.614;8.814;2023-11-18T13:22:02;22.90;51.70
66271;DHT22;53063;39.614;8.814;2023-11-18T13:24:37;22.90;52.00
66271;DHT22;53063;39.614;8.814;2023-11-18T13:27:07;23.20;51.50
66271;DHT22;53063;39.614;8.814;2023-11-18T13:29:37;23.20;53.30
66271;DHT22;53063;39.614;8.814;2023-11-18T13:32:10;23.30;52.90
66271;DHT22;53063;39.614;8.814;2023-11-18T13:34:36;23.10;52.70
66271;DHT22;53063;39.614;8.814;2023-11-18T13:37:07;23.00;53.40
66271;DHT22;53063;39.614;8.814;2023-11-18T13:39:33;23.00;53.20
66271;DHT22;53063;39.614;8.814;2023-11-18T13:42:27;22.80;53.10
66271;DHT22;53063;39.614;8.814;2023-11-18T13:45:02;23.00;53.10
66271;DHT22;53063;39.614;8.814;2023-11-18T13:47:35;22.90;53.30
66271;DHT22;53063;39.614;8.814;2023-11-18T13:50:09;23.00;52.10
66271;DHT22;53063;39.614;8.814;2023-11-18T13:52:36;23.30;52.60
66271;DHT22;53063;39.614;8.814;2023-11-18T13:55:06;23.60;52.20
66271;DHT22;53063;39.614;8.814;2023-11-18T13:57:32;25.00;48.40
66271;DHT22;53063;39.614;8.814;2023-11-18T13:59:58;26.80;44.80
66271;DHT22;53063;39.614;8.814;2023-11-18T14:02:24;27.70;43.50
66271;DHT22;53063;39.614;8.814;2023-11-18T14:04:50;28.80;40.80
66271;DHT22;53063;39.614;8.814;2023-11-18T14:07:16;28.90;40.20
66271;DHT22;53063;39.614;8.814;2023-11-18T14:09:45;28.60;41.10
66271;DHT22;53063;39.614;8.814;2023-11-18T14:12:13;28.80;39.80
66271;DHT22;53063;39.614;8.814;2023-11-18T14:14:39;27.70;41.20
66271;DHT22;53063;39.614;8.814;2023-11-18T14:17:05;24.90;44.60
66271;DHT22;53063;39.614;8.814;2023-11-18T14:19:36;22.20;51.90
66271;DHT22;53063;39.614;8.814;2023-11-18T14:22:05;21.20;54.20
66271;DHT22;53063;39.614;8.814;2023-11-18T14:24:35;20.90;56.10
66271;DHT22;53063;39.614;8.814;2023-11-18T14:27:01;20.60;57.10
66271;DHT22;53063;39.614;8.814;2023-11-18T14:29:27;20.40;57.80
66271;DHT22;53063;39.614;8.814;2023-11-18T14:31:53;20.30;57.10
66271;DHT22;53063;39.614;8.814;2023-11-18T14:34:20;20.20;58.80
66271;DHT22;53063;39.614;8.814;2023-11-18T14:36:45;20.10;59.20
66271;DHT22;53063;39.614;8.814;2023-11-18T14:39:11;20.00;60.00
66271;DHT22;53063;39.614;8.814;2023-11-18T14:41:40;19.90;60.00
66271;DHT22;53063;39.614;8.814;2023-11-18T14:44:06;19.80;61.40
66271;DHT22;53063;39.614;8.814;2023-11-18T14:46:35;19.70;62.30
66271;DHT22;53063;39.614;8.814;2023-11-18T14:49:04;19.60;63.30
66271;DHT22;53063;39.614;8.814;2023-11-18T14:51:35;19.50;64.20
66271;DHT22;53063;39.614;8.814;2023-11-18T14:54:01;19.50;65.30
66271;DHT22;53063;39.614;8.814;2023-11-18T14:56:28;19.40;66.80
66271;DHT22;53063;39.614;8.814;2023-11-18T14:58:53;19.40;66.70
66271;DHT22;53063;39.614;8.814;2023-11-18T15:01:19;19.40;67.20
66271;DHT22;53063;39.614;8.814;2023-11-18T15:03:45;19.50;67.40
66271;DHT22;53063;39.614;8.814;2023-11-18T15:06:11;19.30;67.10
66271;DHT22;53063;39.614;8.814;2023-11-18T15:08:38;19.20;67.70
66271;DHT22;53063;39.614;8.814;2023-11-18T15:11:07;19.10;68.00
66271;DHT22;53063;39.614;8.814;2023-11-18T15:13:32;18.90;69.20
66271;DHT22;53063;39.614;8.814;2023-11-18T15:15:58;18.70;70.00
66271;DHT22;53063;39.614;8.814;2023-11-18T15:18:24;18.60;71.00
66271;DHT22;53063;39.614;8.814;2023-11-18T15:20:50;18.50;71.70
66271;DHT22;53063;39.614;8.814;2023-11-18T15:23:18;18.30;72.10
66271;DHT22;53063;39.614;8.814;2023-11-18T15:25:53;18.30;72.90
66271;DHT22;53063;39.614;8.814;2023-11-18T15:28:19;18.10;73.80
66271;DHT22;53063;39.614;8.814;2023-11-18T15:30:45;18.00;74.70
66271;DHT22;53063;39.614;8.814;2023-11-18T15:33:11;18.00;75.20
66271;DHT22;53063;39.614;8.814;2023-11-18T15:35:39;17.80;75.70
66271;DHT22;53063;39.614;8.814;2023-11-18T15:38:12;17.70;76.20
66271;DHT22;53063;39.614;8.814;2023-11-18T15:40:42;17.70;76.90
66271;DHT22;53063;39.614;8.814;2023-11-18T15:43:08;17.60;77.00
66271;DHT22;53063;39.614;8.814;2023-11-18T15:45:37;17.60;77.60
66271;DHT22;53063;39.614;8.814;2023-11-18T15:48:03;17.50;78.10
66271;DHT22;53063;39.614;8.814;2023-11-18T15:50:34;17.40;78.80
66271;DHT22;53063;39.614;8.814;2023-11-18T15:53:03;17.20;79.50
66271;DHT22;53063;39.614;8.814;2023-11-18T15:55:31;17.20;80.30
66271;DHT22;53063;39.614;8.814;2023-11-18T15:57:58;17.10;80.40